sensor_id;sensor_type;location;lat;lon;timestamp;P1;durP1;ratioP1;P2;durP2;ratioP2
34200;SDS011;20469;55.638;37.670;2022-10-16T00:01:20;5.00;;;3.20;;
34200;SDS011;20469;55.638;37.670;2022-10-16T00:03:49;6.13;;;3.47;;
34200;SDS011;20469;55.638;37.670;2022-10-16T00:06:18;5.68;;;3.40;;
34200;SDS011;20469;55.638;37.670;2022-10-16T00:08:47;15.63;;;6.78;;
34200;SDS011;20469;55.638;37.670;2022-10-16T00:11:20;7.57;;;4.07;;
34200;SDS011;20469;55.638;37.670;2022-10-16T00:13:49;7.07;;;3.45;;
34200;SDS011;20469;55.638;37.670;2022-10-16T00:16:17;9.48;;;3.58;;
34200;SDS011;20469;55.638;37.670;2022-10-16T00:18:45;7.10;;;3.10;;
34200;SDS011;20469;55.638;37.670;2022-10-16T00:21:15;7.97;;;3.40;;
34200;SDS011;20469;55.638;37.670;2022-10-16T00:23:43;6.00;;;2.90;;
34200;SDS011;20469;55.638;37.670;2022-10-16T00:26:12;9.32;;;3.25;;
34200;SDS011;20469;55.638;37.670;2022-10-16T00:28:42;7.55;;;3.70;;
34200;SDS011;20469;55.638;37.670;2022-10-16T00:31:11;5.80;;;3.63;;
34200;SDS011;20469;55.638;37.670;2022-10-16T00:33:39;5.28;;;2.95;;
34200;SDS011;20469;55.638;37.670;2022-10-16T00:36:09;6.18;;;3.45;;
34200;SDS011;20469;55.638;37.670;2022-10-16T00:38:38;11.20;;;5.30;;
34200;SDS011;20469;55.638;37.670;2022-10-16T00:41:07;5.38;;;3.17;;
34200;SDS011;20469;55.638;37.670;2022-10-16T00:43:43;5.93;;;3.30;;
34200;SDS011;20469;55.638;37.670;2022-10-16T00:46:17;6.28;;;3.55;;
34200;SDS011;20469;55.638;37.670;2022-10-16T00:48:51;6.75;;;3.53;;
34200;SDS011;20469;55.638;37.670;2022-10-16T00:51:21;5.38;;;3.38;;
34200;SDS011;20469;55.638;37.670;2022-10-16T00:53:51;7.13;;;3.13;;
34200;SDS011;20469;55.638;37.670;2022-10-16T00:56:19;6.93;;;3.30;;
34200;SDS011;20469;55.638;37.670;2022-10-16T00:58:49;10.82;;;4.03;;
34200;SDS011;20469;55.638;37.670;2022-10-16T01:01:19;7.20;;;3.20;;
34200;SDS011;20469;55.638;37.670;2022-10-16T01:03:48;5.03;;;3.30;;
34200;SDS011;20469;55.638;37.670;2022-10-16T01:06:19;5.45;;;3.22;;
34200;SDS011;20469;55.638;37.670;2022-10-16T01:08:55;7.32;;;3.35;;
34200;SDS011;20469;55.638;37.670;2022-10-16T01:11:28;8.77;;;3.67;;
34200;SDS011;20469;55.638;37.670;2022-10-16T01:13:58;5.38;;;3.20;;
34200;SDS011;20469;55.638;37.670;2022-10-16T01:19:06;8.02;;;3.53;;
34200;SDS011;20469;55.638;37.670;2022-10-16T01:21:40;5.05;;;3.28;;
34200;SDS011;20469;55.638;37.670;2022-10-16T01:27:06;7.78;;;3.90;;
34200;SDS011;20469;55.638;37.670;2022-10-16T01:32:41;7.60;;;3.45;;
34200;SDS011;20469;55.638;37.670;2022-10-16T01:37:57;7.53;;;3.38;;
34200;SDS011;20469;55.638;37.670;2022-10-16T01:40:26;6.22;;;3.85;;
34200;SDS011;20469;55.638;37.670;2022-10-16T01:42:57;8.48;;;4.95;;
34200;SDS011;20469;55.638;37.670;2022-10-16T01:45:29;8.98;;;5.93;;
34200;SDS011;20469;55.638;37.670;2022-10-16T01:48:00;8.60;;;5.35;;
34200;SDS011;20469;55.638;37.670;2022-10-16T01:50:32;9.35;;;5.47;;
34200;SDS011;20469;55.638;37.670;2022-10-16T01:53:02;10.73;;;6.00;;
34200;SDS011;20469;55.638;37.670;2022-10-16T01:55:32;6.68;;;4.90;;
34200;SDS011;20469;55.638;37.670;2022-10-16T01:58:01;6.90;;;4.13;;
34200;SDS011;20469;55.638;37.670;2022-10-16T02:00:30;9.63;;;4.85;;
34200;SDS011;20469;55.638;37.670;2022-10-16T02:02:58;9.77;;;5.00;;
34200;SDS011;20469;55.638;37.670;2022-10-16T02:05:31;7.93;;;4.68;;
34200;SDS011;20469;55.638;37.670;2022-10-16T02:07:59;6.82;;;4.07;;
34200;SDS011;20469;55.638;37.670;2022-10-16T02:10:31;9.20;;;4.55;;
34200;SDS011;20469;55.638;37.670;2022-10-16T02:13:04;7.00;;;3.88;;
34200;SDS011;20469;55.638;37.670;2022-10-16T02:15:52;6.25;;;3.70;;
34200;SDS011;20469;55.638;37.670;2022-10-16T02:18:20;8.63;;;4.55;;
34200;SDS011;20469;55.638;37.670;2022-10-16T02:20:51;7.60;;;3.78;;
34200;SDS011;20469;55.638;37.670;2022-10-16T02:23:21;6.70;;;4.00;;
34200;SDS011;20469;55.638;37.670;2022-10-16T02:25:56;7.00;;;3.92;;
34200;SDS011;20469;55.638;37.670;2022-10-16T02:28:27;8.25;;;4.15;;
34200;SDS011;20469;55.638;37.670;2022-10-16T02:30:59;8.18;;;4.20;;
34200;SDS011;20469;55.638;37.670;2022-10-16T02:33:29;5.20;;;4.00;;
34200;SDS011;20469;55.638;37.670;2022-10-16T02:35:58;8.13;;;3.83;;
34200;SDS011;20469;55.638;37.670;2022-10-16T02:38:26;8.50;;;4.20;;
34200;SDS011;20469;55.638;37.670;2022-10-16T02:40:54;7.68;;;4.05;;
34200;SDS011;20469;55.638;37.670;2022-10-16T02:43:22;5.57;;;3.75;;
34200;SDS011;20469;55.638;37.670;2022-10-16T02:45:50;7.80;;;4.05;;
34200;SDS011;20469;55.638;37.670;2022-10-16T02:48:19;7.68;;;3.40;;
34200;SDS011;20469;55.638;37.670;2022-10-16T02:50:46;6.57;;;3.25;;
34200;SDS011;20469;55.638;37.670;2022-10-16T02:53:14;5.18;;;3.17;;
34200;SDS011;20469;55.638;37.670;2022-10-16T02:55:42;7.13;;;4.18;;
34200;SDS011;20469;55.638;37.670;2022-10-16T02:58:10;5.70;;;3.55;;
34200;SDS011;20469;55.638;37.670;2022-10-16T03:00:38;5.63;;;3.17;;
34200;SDS011;20469;55.638;37.670;2022-10-16T03:03:06;6.93;;;3.22;;
34200;SDS011;20469;55.638;37.670;2022-10-16T03:05:35;7.15;;;3.33;;
34200;SDS011;20469;55.638;37.670;2022-10-16T03:08:03;7.90;;;3.60;;
34200;SDS011;20469;55.638;37.670;2022-10-16T03:10:30;5.47;;;3.15;;
34200;SDS011;20469;55.638;37.670;2022-10-16T03:12:58;5.95;;;3.25;;
34200;SDS011;20469;55.638;37.670;2022-10-16T03:15:26;7.80;;;3.38;;
34200;SDS011;20469;55.638;37.670;2022-10-16T03:17:57;8.90;;;4.10;;
34200;SDS011;20469;55.638;37.670;2022-10-16T03:20:25;7.88;;;3.75;;
34200;SDS011;20469;55.638;37.670;2022-10-16T03:22:53;6.00;;;3.10;;
34200;SDS011;20469;55.638;37.670;2022-10-16T03:25:21;7.00;;;2.83;;
34200;SDS011;20469;55.638;37.670;2022-10-16T03:27:49;5.70;;;2.78;;
34200;SDS011;20469;55.638;37.670;2022-10-16T03:30:16;6.35;;;3.33;;
34200;SDS011;20469;55.638;37.670;2022-10-16T03:32:45;5.65;;;3.30;;
34200;SDS011;20469;55.638;37.670;2022-10-16T03:35:13;5.38;;;3.28;;
34200;SDS011;20469;55.638;37.670;2022-10-16T03:37:41;4.10;;;3.00;;
34200;SDS011;20469;55.638;37.670;2022-10-16T03:40:09;5.40;;;3.17;;
34200;SDS011;20469;55.638;37.670;2022-10-16T03:42:37;6.10;;;2.97;;
34200;SDS011;20469;55.638;37.670;2022-10-16T03:45:05;11.63;;;3.78;;
34200;SDS011;20469;55.638;37.670;2022-10-16T03:47:33;6.47;;;3.15;;
34200;SDS011;20469;55.638;37.670;2022-10-16T03:50:01;4.78;;;2.97;;
34200;SDS011;20469;55.638;37.670;2022-10-16T03:52:29;6.45;;;3.25;;
34200;SDS011;20469;55.638;37.670;2022-10-16T03:54:56;5.82;;;3.33;;
34200;SDS011;20469;55.638;37.670;2022-10-16T03:57:24;6.50;;;3.75;;
34200;SDS011;20469;55.638;37.670;2022-10-16T03:59:53;9.02;;;4.68;;
34200;SDS011;20469;55.638;37.670;2022-10-16T04:02:21;9.52;;;4.57;;
34200;SDS011;20469;55.638;37.670;2022-10-16T04:04:49;7.82;;;4.65;;
34200;SDS011;20469;55.638;37.670;2022-10-16T04:07:17;10.15;;;4.60;;
34200;SDS011;20469;55.638;37.670;2022-10-16T04:09:45;8.88;;;4.45;;
34200;SDS011;20469;55.638;37.670;2022-10-16T04:12:12;12.65;;;5.57;;
34200;SDS011;20469;55.638;37.670;2022-10-16T04:14:40;10.38;;;5.32;;
34200;SDS011;20469;55.638;37.670;2022-10-16T04:17:08;7.40;;;5.00;;
34200;SDS011;20469;55.638;37.670;2022-10-16T04:19:36;10.00;;;5.03;;
34200;SDS011;20469;55.638;37.670;2022-10-16T04:22:04;11.55;;;5.53;;
34200;SDS011;20469;55.638;37.670;2022-10-16T04:24:31;11.05;;;4.95;;
34200;SDS011;20469;55.638;37.670;2022-10-16T04:26:59;7.70;;;5.10;;
34200;SDS011;20469;55.638;37.670;2022-10-16T04:29:27;9.15;;;4.78;;
34200;SDS011;20469;55.638;37.670;2022-10-16T04:31:55;9.25;;;4.40;;
34200;SDS011;20469;55.638;37.670;2022-10-16T04:34:22;9.95;;;5.10;;
34200;SDS011;20469;55.638;37.670;2022-10-16T04:36:50;9.38;;;4.43;;
34200;SDS011;20469;55.638;37.670;2022-10-16T04:39:18;7.60;;;4.32;;
34200;SDS011;20469;55.638;37.670;2022-10-16T04:41:46;5.93;;;4.05;;
34200;SDS011;20469;55.638;37.670;2022-10-16T04:44:14;9.80;;;4.68;;
34200;SDS011;20469;55.638;37.670;2022-10-16T04:46:42;8.43;;;4.60;;
34200;SDS011;20469;55.638;37.670;2022-10-16T04:49:11;10.98;;;4.30;;
34200;SDS011;20469;55.638;37.670;2022-10-16T04:51:39;7.28;;;4.30;;
34200;SDS011;20469;55.638;37.670;2022-10-16T04:54:06;7.78;;;4.10;;
34200;SDS011;20469;55.638;37.670;2022-10-16T04:56:34;6.85;;;3.83;;
34200;SDS011;20469;55.638;37.670;2022-10-16T04:59:09;9.75;;;4.88;;
34200;SDS011;20469;55.638;37.670;2022-10-16T05:01:36;9.80;;;4.47;;
34200;SDS011;20469;55.638;37.670;2022-10-16T05:04:04;10.23;;;4.68;;
34200;SDS011;20469;55.638;37.670;2022-10-16T05:06:31;11.48;;;4.75;;
34200;SDS011;20469;55.638;37.670;2022-10-16T05:08:59;9.90;;;5.78;;
34200;SDS011;20469;55.638;37.670;2022-10-16T05:11:27;15.30;;;5.38;;
34200;SDS011;20469;55.638;37.670;2022-10-16T05:13:54;13.43;;;5.05;;
34200;SDS011;20469;55.638;37.670;2022-10-16T05:16:22;16.90;;;5.57;;
34200;SDS011;20469;55.638;37.670;2022-10-16T05:18:50;14.18;;;5.88;;
34200;SDS011;20469;55.638;37.670;2022-10-16T05:21:25;11.02;;;5.35;;
34200;SDS011;20469;55.638;37.670;2022-10-16T05:23:53;12.18;;;5.85;;
34200;SDS011;20469;55.638;37.670;2022-10-16T05:26:21;12.68;;;5.35;;
34200;SDS011;20469;55.638;37.670;2022-10-16T05:28:49;13.70;;;5.47;;
34200;SDS011;20469;55.638;37.670;2022-10-16T05:31:17;11.50;;;5.32;;
34200;SDS011;20469;55.638;37.670;2022-10-16T05:33:44;9.70;;;4.97;;
34200;SDS011;20469;55.638;37.670;2022-10-16T05:36:12;13.35;;;5.10;;
34200;SDS011;20469;55.638;37.670;2022-10-16T05:38:40;13.80;;;6.18;;
34200;SDS011;20469;55.638;37.670;2022-10-16T05:41:07;13.38;;;5.55;;
34200;SDS011;20469;55.638;37.670;2022-10-16T05:43:35;12.85;;;5.47;;
34200;SDS011;20469;55.638;37.670;2022-10-16T05:46:03;17.85;;;6.35;;
34200;SDS011;20469;55.638;37.670;2022-10-16T05:48:31;18.65;;;6.03;;
34200;SDS011;20469;55.638;37.670;2022-10-16T05:51:00;10.10;;;5.82;;
34200;SDS011;20469;55.638;37.670;2022-10-16T05:53:31;13.93;;;5.80;;
34200;SDS011;20469;55.638;37.670;2022-10-16T05:56:01;11.73;;;6.10;;
34200;SDS011;20469;55.638;37.670;2022-10-16T05:58:31;15.23;;;5.75;;
34200;SDS011;20469;55.638;37.670;2022-10-16T06:01:03;15.85;;;5.53;;
34200;SDS011;20469;55.638;37.670;2022-10-16T06:03:34;16.70;;;5.30;;
34200;SDS011;20469;55.638;37.670;2022-10-16T06:08:47;11.20;;;5.40;;
34200;SDS011;20469;55.638;37.670;2022-10-16T06:11:17;11.95;;;5.40;;
34200;SDS011;20469;55.638;37.670;2022-10-16T06:13:49;16.48;;;5.93;;
34200;SDS011;20469;55.638;37.670;2022-10-16T06:16:18;10.65;;;4.97;;
34200;SDS011;20469;55.638;37.670;2022-10-16T06:18:46;10.50;;;4.63;;
34200;SDS011;20469;55.638;37.670;2022-10-16T06:21:17;9.50;;;4.57;;
34200;SDS011;20469;55.638;37.670;2022-10-16T06:23:46;13.05;;;5.25;;
34200;SDS011;20469;55.638;37.670;2022-10-16T06:26:16;9.02;;;4.63;;
34200;SDS011;20469;55.638;37.670;2022-10-16T06:28:46;12.00;;;4.90;;
34200;SDS011;20469;55.638;37.670;2022-10-16T06:31:14;14.07;;;5.82;;
34200;SDS011;20469;55.638;37.670;2022-10-16T06:33:42;10.05;;;5.35;;
34200;SDS011;20469;55.638;37.670;2022-10-16T06:36:14;10.18;;;4.88;;
34200;SDS011;20469;55.638;37.670;2022-10-16T06:38:42;12.95;;;5.97;;
34200;SDS011;20469;55.638;37.670;2022-10-16T06:41:11;14.57;;;5.25;;
34200;SDS011;20469;55.638;37.670;2022-10-16T06:43:40;12.18;;;5.60;;
34200;SDS011;20469;55.638;37.670;2022-10-16T06:46:09;16.42;;;5.38;;
34200;SDS011;20469;55.638;37.670;2022-10-16T06:48:38;16.83;;;5.10;;
34200;SDS011;20469;55.638;37.670;2022-10-16T06:51:08;13.13;;;4.93;;
34200;SDS011;20469;55.638;37.670;2022-10-16T06:53:39;14.07;;;6.22;;
34200;SDS011;20469;55.638;37.670;2022-10-16T06:56:28;15.35;;;5.07;;
34200;SDS011;20469;55.638;37.670;2022-10-16T06:58:58;9.85;;;4.22;;
34200;SDS011;20469;55.638;37.670;2022-10-16T07:01:28;9.75;;;4.80;;
34200;SDS011;20469;55.638;37.670;2022-10-16T07:04:00;8.68;;;4.45;;
34200;SDS011;20469;55.638;37.670;2022-10-16T07:06:30;9.23;;;4.40;;
34200;SDS011;20469;55.638;37.670;2022-10-16T07:09:00;13.63;;;5.30;;
34200;SDS011;20469;55.638;37.670;2022-10-16T07:11:29;14.68;;;4.80;;
34200;SDS011;20469;55.638;37.670;2022-10-16T07:13:57;10.18;;;4.35;;
34200;SDS011;20469;55.638;37.670;2022-10-16T07:16:25;10.50;;;4.25;;
34200;SDS011;20469;55.638;37.670;2022-10-16T07:18:55;9.88;;;4.53;;
34200;SDS011;20469;55.638;37.670;2022-10-16T07:21:29;13.80;;;4.10;;
34200;SDS011;20469;55.638;37.670;2022-10-16T07:24:06;14.10;;;5.05;;
34200;SDS011;20469;55.638;37.670;2022-10-16T07:26:41;14.93;;;4.97;;
34200;SDS011;20469;55.638;37.670;2022-10-16T07:29:18;16.55;;;9.77;;
34200;SDS011;20469;55.638;37.670;2022-10-16T07:31:53;9.75;;;4.28;;
34200;SDS011;20469;55.638;37.670;2022-10-16T07:34:26;10.38;;;3.60;;
34200;SDS011;20469;55.638;37.670;2022-10-16T07:36:54;11.85;;;3.83;;
34200;SDS011;20469;55.638;37.670;2022-10-16T07:39:21;10.48;;;4.18;;
34200;SDS011;20469;55.638;37.670;2022-10-16T07:41:49;10.70;;;4.65;;
34200;SDS011;20469;55.638;37.670;2022-10-16T07:44:16;10.73;;;4.47;;
34200;SDS011;20469;55.638;37.670;2022-10-16T07:46:44;24.77;;;7.57;;
34200;SDS011;20469;55.638;37.670;2022-10-16T07:49:14;10.25;;;5.07;;
34200;SDS011;20469;55.638;37.670;2022-10-16T07:51:43;9.18;;;4.03;;
34200;SDS011;20469;55.638;37.670;2022-10-16T07:54:12;7.78;;;4.10;;
34200;SDS011;20469;55.638;37.670;2022-10-16T07:56:41;11.73;;;4.00;;
34200;SDS011;20469;55.638;37.670;2022-10-16T07:59:10;7.80;;;3.72;;
34200;SDS011;20469;55.638;37.670;2022-10-16T08:01:37;10.95;;;4.97;;
34200;SDS011;20469;55.638;37.670;2022-10-16T08:04:05;11.40;;;5.00;;
34200;SDS011;20469;55.638;37.670;2022-10-16T08:06:35;8.00;;;3.78;;
34200;SDS011;20469;55.638;37.670;2022-10-16T08:09:05;9.48;;;3.90;;
34200;SDS011;20469;55.638;37.670;2022-10-16T08:11:34;11.65;;;3.90;;
34200;SDS011;20469;55.638;37.670;2022-10-16T08:14:01;8.52;;;3.53;;
34200;SDS011;20469;55.638;37.670;2022-10-16T08:16:30;7.30;;;3.75;;
34200;SDS011;20469;55.638;37.670;2022-10-16T08:19:01;7.57;;;4.07;;
34200;SDS011;20469;55.638;37.670;2022-10-16T08:21:32;7.47;;;4.13;;
34200;SDS011;20469;55.638;37.670;2022-10-16T08:24:03;8.05;;;3.80;;
34200;SDS011;20469;55.638;37.670;2022-10-16T08:26:33;12.40;;;4.45;;
34200;SDS011;20469;55.638;37.670;2022-10-16T08:29:02;10.27;;;4.53;;
34200;SDS011;20469;55.638;37.670;2022-10-16T08:31:34;11.50;;;4.90;;
34200;SDS011;20469;55.638;37.670;2022-10-16T08:34:03;9.00;;;4.18;;
34200;SDS011;20469;55.638;37.670;2022-10-16T08:36:33;5.43;;;3.03;;
34200;SDS011;20469;55.638;37.670;2022-10-16T08:39:03;11.50;;;4.00;;
34200;SDS011;20469;55.638;37.670;2022-10-16T08:41:53;6.97;;;3.20;;
34200;SDS011;20469;55.638;37.670;2022-10-16T08:47:42;9.88;;;3.88;;
34200;SDS011;20469;55.638;37.670;2022-10-16T08:50:19;7.82;;;3.58;;
34200;SDS011;20469;55.638;37.670;2022-10-16T08:52:51;9.52;;;3.63;;
34200;SDS011;20469;55.638;37.670;2022-10-16T08:55:29;5.97;;;3.45;;
34200;SDS011;20469;55.638;37.670;2022-10-16T08:58:00;5.43;;;3.20;;
34200;SDS011;20469;55.638;37.670;2022-10-16T09:00:30;6.75;;;2.83;;
34200;SDS011;20469;55.638;37.670;2022-10-16T09:03:03;6.28;;;3.40;;
34200;SDS011;20469;55.638;37.670;2022-10-16T09:06:02;8.88;;;3.20;;
34200;SDS011;20469;55.638;37.670;2022-10-16T09:08:56;4.38;;;3.35;;
34200;SDS011;20469;55.638;37.670;2022-10-16T09:14:49;5.80;;;3.28;;
34200;SDS011;20469;55.638;37.670;2022-10-16T09:20:13;6.20;;;2.83;;
34200;SDS011;20469;55.638;37.670;2022-10-16T09:22:47;4.63;;;2.47;;
34200;SDS011;20469;55.638;37.670;2022-10-16T09:25:16;6.20;;;3.00;;
34200;SDS011;20469;55.638;37.670;2022-10-16T09:27:48;8.03;;;2.90;;
34200;SDS011;20469;55.638;37.670;2022-10-16T09:30:20;5.43;;;2.80;;
34200;SDS011;20469;55.638;37.670;2022-10-16T09:32:50;7.72;;;3.05;;
34200;SDS011;20469;55.638;37.670;2022-10-16T09:35:20;7.50;;;2.67;;
34200;SDS011;20469;55.638;37.670;2022-10-16T09:37:54;11.75;;;3.58;;
34200;SDS011;20469;55.638;37.670;2022-10-16T09:40:24;8.95;;;3.80;;
34200;SDS011;20469;55.638;37.670;2022-10-16T09:42:57;7.65;;;2.80;;
34200;SDS011;20469;55.638;37.670;2022-10-16T09:45:40;6.47;;;2.70;;
34200;SDS011;20469;55.638;37.670;2022-10-16T09:48:10;6.63;;;2.45;;
34200;SDS011;20469;55.638;37.670;2022-10-16T09:50:39;8.43;;;2.80;;
34200;SDS011;20469;55.638;37.670;2022-10-16T09:53:11;7.28;;;2.92;;
34200;SDS011;20469;55.638;37.670;2022-10-16T09:55:48;5.28;;;2.50;;
34200;SDS011;20469;55.638;37.670;2022-10-16T09:58:16;3.97;;;2.53;;
34200;SDS011;20469;55.638;37.670;2022-10-16T10:00:52;8.80;;;2.28;;
34200;SDS011;20469;55.638;37.670;2022-10-16T10:06:06;2.85;;;2.20;;
34200;SDS011;20469;55.638;37.670;2022-10-16T10:08:54;5.10;;;2.50;;
34200;SDS011;20469;55.638;37.670;2022-10-16T10:14:08;6.35;;;2.70;;
34200;SDS011;20469;55.638;37.670;2022-10-16T10:16:43;5.78;;;2.53;;
34200;SDS011;20469;55.638;37.670;2022-10-16T10:19:20;3.80;;;2.25;;
34200;SDS011;20469;55.638;37.670;2022-10-16T10:21:56;7.70;;;2.75;;
34200;SDS011;20469;55.638;37.670;2022-10-16T10:24:24;5.65;;;2.38;;
34200;SDS011;20469;55.638;37.670;2022-10-16T10:29:42;5.38;;;2.47;;
34200;SDS011;20469;55.638;37.670;2022-10-16T10:32:26;3.38;;;2.25;;
34200;SDS011;20469;55.638;37.670;2022-10-16T10:35:07;9.45;;;2.30;;
34200;SDS011;20469;55.638;37.670;2022-10-16T10:37:53;4.38;;;2.28;;
34200;SDS011;20469;55.638;37.670;2022-10-16T10:40:34;4.72;;;2.50;;
34200;SDS011;20469;55.638;37.670;2022-10-16T10:43:19;6.18;;;1.90;;
34200;SDS011;20469;55.638;37.670;2022-10-16T10:46:00;4.20;;;2.10;;
34200;SDS011;20469;55.638;37.670;2022-10-16T10:48:41;4.38;;;2.00;;
34200;SDS011;20469;55.638;37.670;2022-10-16T10:51:23;5.55;;;2.60;;
34200;SDS011;20469;55.638;37.670;2022-10-16T10:54:07;7.35;;;2.90;;
34200;SDS011;20469;55.638;37.670;2022-10-16T10:56:50;4.50;;;1.98;;
34200;SDS011;20469;55.638;37.670;2022-10-16T10:59:54;5.07;;;2.40;;
34200;SDS011;20469;55.638;37.670;2022-10-16T11:02:36;3.40;;;1.95;;
34200;SDS011;20469;55.638;37.670;2022-10-16T11:05:20;3.22;;;1.88;;
34200;SDS011;20469;55.638;37.670;2022-10-16T11:08:07;3.75;;;2.20;;
34200;SDS011;20469;55.638;37.670;2022-10-16T11:10:53;4.63;;;2.13;;
34200;SDS011;20469;55.638;37.670;2022-10-16T11:13:30;4.32;;;2.33;;
34200;SDS011;20469;55.638;37.670;2022-10-16T11:24:59;3.38;;;2.28;;
34200;SDS011;20469;55.638;37.670;2022-10-16T11:27:47;4.68;;;2.25;;
34200;SDS011;20469;55.638;37.670;2022-10-16T11:30:29;5.93;;;2.35;;
34200;SDS011;20469;55.638;37.670;2022-10-16T11:33:04;5.03;;;2.20;;
34200;SDS011;20469;55.638;37.670;2022-10-16T11:41:37;5.10;;;1.90;;
34200;SDS011;20469;55.638;37.670;2022-10-16T11:44:16;3.15;;;2.47;;
34200;SDS011;20469;55.638;37.670;2022-10-16T11:47:09;2.85;;;2.20;;
34200;SDS011;20469;55.638;37.670;2022-10-16T11:50:20;2.90;;;2.00;;
34200;SDS011;20469;55.638;37.670;2022-10-16T11:53:00;5.65;;;2.58;;
34200;SDS011;20469;55.638;37.670;2022-10-16T11:55:36;2.33;;;1.83;;
34200;SDS011;20469;55.638;37.670;2022-10-16T12:04:04;5.15;;;2.38;;
34200;SDS011;20469;55.638;37.670;2022-10-16T12:06:46;4.97;;;2.10;;
34200;SDS011;20469;55.638;37.670;2022-10-16T12:09:22;3.28;;;2.08;;
34200;SDS011;20469;55.638;37.670;2022-10-16T12:11:55;3.92;;;2.40;;
34200;SDS011;20469;55.638;37.670;2022-10-16T12:17:37;5.88;;;2.20;;
34200;SDS011;20469;55.638;37.670;2022-10-16T12:20:20;3.90;;;2.13;;
34200;SDS011;20469;55.638;37.670;2022-10-16T12:22:54;3.10;;;2.20;;
34200;SDS011;20469;55.638;37.670;2022-10-16T12:25:38;3.28;;;2.33;;
34200;SDS011;20469;55.638;37.670;2022-10-16T12:28:19;4.07;;;2.55;;
34200;SDS011;20469;55.638;37.670;2022-10-16T12:30:53;6.07;;;2.92;;
34200;SDS011;20469;55.638;37.670;2022-10-16T12:33:25;5.72;;;2.42;;
34200;SDS011;20469;55.638;37.670;2022-10-16T12:36:03;5.07;;;2.30;;
34200;SDS011;20469;55.638;37.670;2022-10-16T12:38:48;4.68;;;2.20;;
34200;SDS011;20469;55.638;37.670;2022-10-16T12:44:02;3.80;;;2.90;;
34200;SDS011;20469;55.638;37.670;2022-10-16T12:46:36;6.00;;;2.35;;
34200;SDS011;20469;55.638;37.670;2022-10-16T12:49:16;5.25;;;2.55;;
34200;SDS011;20469;55.638;37.670;2022-10-16T12:51:52;6.32;;;2.17;;
34200;SDS011;20469;55.638;37.670;2022-10-16T12:54:26;4.40;;;2.63;;
34200;SDS011;20469;55.638;37.670;2022-10-16T12:57:17;4.03;;;2.63;;
34200;SDS011;20469;55.638;37.670;2022-10-16T13:02:59;4.30;;;2.17;;
34200;SDS011;20469;55.638;37.670;2022-10-16T13:09:00;5.85;;;2.55;;
34200;SDS011;20469;55.638;37.670;2022-10-16T13:14:36;6.03;;;3.40;;
34200;SDS011;20469;55.638;37.670;2022-10-16T13:20:29;6.70;;;2.55;;
34200;SDS011;20469;55.638;37.670;2022-10-16T13:23:06;8.82;;;2.60;;
34200;SDS011;20469;55.638;37.670;2022-10-16T13:25:59;6.28;;;3.00;;
34200;SDS011;20469;55.638;37.670;2022-10-16T13:28:44;5.90;;;2.80;;
34200;SDS011;20469;55.638;37.670;2022-10-16T13:31:30;5.10;;;2.78;;
34200;SDS011;20469;55.638;37.670;2022-10-16T13:33:59;5.88;;;2.95;;
34200;SDS011;20469;55.638;37.670;2022-10-16T13:36:30;6.85;;;2.90;;
34200;SDS011;20469;55.638;37.670;2022-10-16T13:39:07;7.32;;;3.78;;
34200;SDS011;20469;55.638;37.670;2022-10-16T13:41:40;6.05;;;2.67;;
34200;SDS011;20469;55.638;37.670;2022-10-16T13:47:00;6.05;;;2.83;;
34200;SDS011;20469;55.638;37.670;2022-10-16T13:49:29;4.70;;;2.50;;
34200;SDS011;20469;55.638;37.670;2022-10-16T13:51:58;7.47;;;3.40;;
34200;SDS011;20469;55.638;37.670;2022-10-16T13:54:27;8.68;;;4.97;;
34200;SDS011;20469;55.638;37.670;2022-10-16T13:56:55;8.60;;;3.65;;
34200;SDS011;20469;55.638;37.670;2022-10-16T13:59:33;7.82;;;3.50;;
34200;SDS011;20469;55.638;37.670;2022-10-16T14:02:05;5.15;;;2.83;;
34200;SDS011;20469;55.638;37.670;2022-10-16T14:04:45;6.00;;;3.40;;
34200;SDS011;20469;55.638;37.670;2022-10-16T14:07:20;5.57;;;3.15;;
34200;SDS011;20469;55.638;37.670;2022-10-16T14:09:53;9.80;;;3.58;;
34200;SDS011;20469;55.638;37.670;2022-10-16T14:12:23;11.63;;;3.38;;
34200;SDS011;20469;55.638;37.670;2022-10-16T14:14:54;7.72;;;3.47;;
34200;SDS011;20469;55.638;37.670;2022-10-16T14:17:25;5.70;;;2.70;;
34200;SDS011;20469;55.638;37.670;2022-10-16T14:19:56;5.93;;;3.10;;
34200;SDS011;20469;55.638;37.670;2022-10-16T14:22:32;7.15;;;3.00;;
34200;SDS011;20469;55.638;37.670;2022-10-16T14:25:16;6.53;;;2.95;;
34200;SDS011;20469;55.638;37.670;2022-10-16T14:27:57;6.65;;;2.65;;
34200;SDS011;20469;55.638;37.670;2022-10-16T14:30:28;10.95;;;3.30;;
34200;SDS011;20469;55.638;37.670;2022-10-16T14:33:03;7.00;;;2.90;;
34200;SDS011;20469;55.638;37.670;2022-10-16T14:35:33;6.50;;;3.13;;
34200;SDS011;20469;55.638;37.670;2022-10-16T14:40:45;7.70;;;3.22;;
34200;SDS011;20469;55.638;37.670;2022-10-16T14:43:20;9.00;;;3.67;;
34200;SDS011;20469;55.638;37.670;2022-10-16T14:45:50;6.03;;;3.13;;
34200;SDS011;20469;55.638;37.670;2022-10-16T14:48:22;6.30;;;3.55;;
34200;SDS011;20469;55.638;37.670;2022-10-16T14:50:51;6.47;;;3.08;;
34200;SDS011;20469;55.638;37.670;2022-10-16T14:53:19;6.55;;;3.10;;
34200;SDS011;20469;55.638;37.670;2022-10-16T14:55:48;7.75;;;4.10;;
34200;SDS011;20469;55.638;37.670;2022-10-16T14:58:20;6.45;;;3.28;;
34200;SDS011;20469;55.638;37.670;2022-10-16T15:00:49;8.10;;;3.80;;
34200;SDS011;20469;55.638;37.670;2022-10-16T15:03:20;8.57;;;3.67;;
34200;SDS011;20469;55.638;37.670;2022-10-16T15:05:48;6.72;;;3.03;;
34200;SDS011;20469;55.638;37.670;2022-10-16T15:08:16;5.50;;;3.20;;
34200;SDS011;20469;55.638;37.670;2022-10-16T15:10:44;5.93;;;2.95;;
34200;SDS011;20469;55.638;37.670;2022-10-16T15:13:14;8.07;;;3.17;;
34200;SDS011;20469;55.638;37.670;2022-10-16T15:15:43;7.82;;;3.47;;
34200;SDS011;20469;55.638;37.670;2022-10-16T15:18:13;9.27;;;3.80;;
34200;SDS011;20469;55.638;37.670;2022-10-16T15:20:48;5.35;;;3.67;;
34200;SDS011;20469;55.638;37.670;2022-10-16T15:23:20;6.22;;;3.13;;
34200;SDS011;20469;55.638;37.670;2022-10-16T15:25:51;5.22;;;3.30;;
34200;SDS011;20469;55.638;37.670;2022-10-16T15:28:21;7.28;;;3.40;;
34200;SDS011;20469;55.638;37.670;2022-10-16T15:30:53;8.95;;;4.22;;
34200;SDS011;20469;55.638;37.670;2022-10-16T15:33:26;6.20;;;3.50;;
34200;SDS011;20469;55.638;37.670;2022-10-16T15:36:05;6.32;;;3.20;;
34200;SDS011;20469;55.638;37.670;2022-10-16T15:38:33;5.82;;;3.45;;
34200;SDS011;20469;55.638;37.670;2022-10-16T15:41:05;5.40;;;3.40;;
34200;SDS011;20469;55.638;37.670;2022-10-16T15:43:42;7.03;;;3.80;;
34200;SDS011;20469;55.638;37.670;2022-10-16T15:46:11;9.07;;;4.13;;
34200;SDS011;20469;55.638;37.670;2022-10-16T15:48:41;9.10;;;3.53;;
34200;SDS011;20469;55.638;37.670;2022-10-16T15:51:10;6.60;;;3.70;;
34200;SDS011;20469;55.638;37.670;2022-10-16T15:53:38;7.57;;;4.22;;
34200;SDS011;20469;55.638;37.670;2022-10-16T15:56:07;6.47;;;3.70;;
34200;SDS011;20469;55.638;37.670;2022-10-16T15:58:39;9.77;;;4.00;;
34200;SDS011;20469;55.638;37.670;2022-10-16T16:01:07;9.48;;;4.60;;
34200;SDS011;20469;55.638;37.670;2022-10-16T16:03:37;8.25;;;4.10;;
34200;SDS011;20469;55.638;37.670;2022-10-16T16:06:09;9.95;;;5.25;;
34200;SDS011;20469;55.638;37.670;2022-10-16T16:08:39;9.30;;;4.07;;
34200;SDS011;20469;55.638;37.670;2022-10-16T16:11:11;8.77;;;4.30;;
34200;SDS011;20469;55.638;37.670;2022-10-16T16:13:41;6.40;;;3.92;;
34200;SDS011;20469;55.638;37.670;2022-10-16T16:16:10;10.25;;;4.53;;